Time;durP1;ratioP1;P1;durP2;ratioP2;P2;SDS_P1;SDS_P2;PMS_P1;PMS_P2;Temp;Humidity;BMP_temperature;BMP_pressure;BME280_temperature;BME280_humidity;BME280_pressure;Samples;Min_cycle;Max_cycle;Signal;HPM_P1;HPM_P2
2022/06/13 00:01:59;;;;;;;12.02;4.32;;;;;;;13.04;69.86;101994.25;4779208;30;20136;-78
2022/06/13 00:04:24;;;;;;;17.98;4.85;;;;;;;13.03;69.66;102000.47;4766629;30;20114;-78
2022/06/13 00:06:50;;;;;;;12.70;4.18;;;;;;;13.05;70.98;101990.69;4746603;30;20048;-78
2022/06/13 00:09:15;;;;;;;12.65;4.35;;;;;;;13.05;71.27;101988.00;4764655;30;20126;-78
2022/06/13 00:11:41;;;;;;;10.50;3.90;;;;;;;13.05;70.81;101988.00;4775487;30;20481;-78
2022/06/13 00:14:08;;;;;;;12.65;4.10;;;;;;;13.05;71.24;101990.69;4760927;30;20540;-78
2022/06/13 00:16:34;;;;;;;11.05;4.05;;;;;;;13.02;71.78;101981.88;4752026;30;20141;-78
2022/06/13 00:19:00;;;;;;;11.90;4.35;;;;;;;13.04;71.50;101982.75;4737684;30;20047;-78
2022/06/13 00:21:32;;;;;;;10.48;4.10;;;;;;;13.07;71.33;101982.69;4771699;30;20426;-78
2022/06/13 00:24:00;;;;;;;12.50;4.07;;;;;;;13.04;70.88;101983.63;4761679;30;20059;-78
2022/06/13 00:26:28;;;;;;;10.35;4.00;;;;;;;13.03;71.63;101983.63;4772026;30;20036;-78
2022/06/13 00:28:55;;;;;;;12.10;4.57;;;;;;;13.02;72.63;101985.41;4751520;30;20047;-78
2022/06/13 00:31:21;;;;;;;12.77;3.83;;;;;;;13.05;71.74;101987.16;4752060;30;20050;-78
2022/06/13 00:33:47;;;;;;;14.85;4.47;;;;;;;13.06;72.23;101980.94;4769906;30;20200;-78
2022/06/13 00:36:12;;;;;;;13.02;4.50;;;;;;;13.10;71.72;101985.28;4781430;29;20147;-78
2022/06/13 00:38:38;;;;;;;8.85;3.90;;;;;;;13.13;71.96;101975.50;4737260;30;20471;-78
2022/06/13 00:41:13;;;;;;;12.27;3.88;;;;;;;13.18;72.42;101977.22;4764402;30;20113;-78
2022/06/13 00:43:41;;;;;;;12.32;4.20;;;;;;;13.21;72.30;101974.53;4751612;30;20055;-78
2022/06/13 00:46:27;;;;;;;12.50;4.00;;;;;;;13.26;71.70;101956.72;4750847;30;20078;-78
2022/06/13 00:48:56;;;;;;;13.48;4.10;;;;;;;13.29;72.17;101959.34;4767704;30;20408;-78
2022/06/13 00:51:22;;;;;;;15.38;4.75;;;;;;;13.34;72.37;101954.84;4764017;30;20048;-78
2022/06/13 00:53:48;;;;;;;12.18;4.43;;;;;;;13.38;72.37;101960.97;4760610;30;20070;-78
2022/06/13 00:56:17;;;;;;;9.95;3.97;;;;;;;13.41;72.08;101960.94;4771745;30;20044;-78
2022/06/13 00:58:54;;;;;;;10.77;4.15;;;;;;;13.44;71.89;101958.22;4774705;30;20035;-78
2022/06/13 01:01:22;;;;;;;13.00;4.30;;;;;;;13.44;71.95;101960.91;4756214;30;20048;-77
2022/06/13 01:03:48;;;;;;;12.43;4.85;;;;;;;13.46;72.30;101944.00;4751911;30;20043;-78
2022/06/13 01:06:14;;;;;;;15.05;5.00;;;;;;;13.44;72.61;101956.44;4764050;30;20154;-77
2022/06/13 01:08:40;;;;;;;9.20;4.35;;;;;;;13.42;72.88;101950.25;4749022;30;20084;-78
2022/06/13 01:11:17;;;;;;;12.32;4.30;;;;;;;13.43;72.27;101959.16;4777300;30;20130;-78
2022/06/13 01:14:19;;;;;;;12.05;5.07;;;;;;;13.50;70.88;101951.03;4778117;30;20048;-78
2022/06/13 01:16:45;;;;;;;15.05;5.28;;;;;;;13.50;71.90;101961.69;4764253;30;20504;-77
2022/06/13 01:19:29;;;;;;;10.70;4.40;;;;;;;13.54;71.35;101957.19;4759041;30;20183;-78
2022/06/13 01:22:42;;;;;;;9.52;3.90;;;;;;;13.56;69.94;101958.03;4783427;30;20146;-78
2022/06/13 01:25:25;;;;;;;9.13;4.53;;;;;;;13.53;72.86;101955.44;4712442;30;20060;-78
2022/06/13 01:27:53;;;;;;;10.93;4.60;;;;;;;13.52;72.68;101964.31;4698042;30;20056;-77
2022/06/13 01:30:31;;;;;;;16.05;5.65;;;;;;;13.54;71.70;101959.84;4739614;30;20050;-78
2022/06/13 01:33:16;;;;;;;15.27;5.22;;;;;;;13.60;71.92;101965.06;4752427;30;20051;-78
2022/06/13 01:35:55;;;;;;;10.23;4.65;;;;;;;13.62;71.79;101962.38;4767449;30;20144;-78
2022/06/13 01:38:39;;;;;;;11.13;4.97;;;;;;;13.63;72.50;101945.50;4751767;30;20044;-78
2022/06/13 01:41:27;;;;;;;9.05;4.35;;;;;;;13.66;72.06;101951.66;4767542;30;20052;-78
2022/06/13 01:44:04;;;;;;;15.70;4.65;;;;;;;13.68;71.53;101935.66;4751534;30;20090;-78
2022/06/13 01:46:37;;;;;;;11.02;4.78;;;;;;;13.66;71.69;101943.66;4775219;30;20067;-78
2022/06/13 01:49:26;;;;;;;15.93;5.60;;;;;;;13.72;71.06;101942.66;4767265;30;20059;-78
2022/06/13 01:52:25;;;;;;;11.40;4.88;;;;;;;13.73;71.46;101947.97;4751559;30;20063;-78
2022/06/13 01:55:05;;;;;;;13.80;5.20;;;;;;;13.71;72.21;101946.25;4757565;30;20059;-78
2022/06/13 01:57:47;;;;;;;17.10;5.00;;;;;;;13.73;71.71;101947.13;4773076;30;20067;-78
2022/06/13 02:00:34;;;;;;;14.25;5.15;;;;;;;13.72;72.42;101959.56;4772346;30;20139;-78
2022/06/13 02:03:14;;;;;;;17.58;5.53;;;;;;;13.72;71.72;101959.56;4756137;30;20109;-77
2022/06/13 02:05:46;;;;;;;17.02;5.22;;;;;;;13.73;71.86;101950.66;4765026;30;20174;-77
2022/06/13 02:08:22;;;;;;;18.38;5.50;;;;;;;13.77;72.10;101951.47;4775705;30;20055;-77
2022/06/13 02:10:59;;;;;;;18.38;5.38;;;;;;;13.80;71.35;101950.53;4772166;30;20404;-78
2022/06/13 02:13:42;;;;;;;15.50;5.18;;;;;;;13.80;71.49;101950.53;4752185;30;20488;-77
2022/06/13 02:16:24;;;;;;;14.77;5.57;;;;;;;13.82;72.17;101957.56;4766789;30;20059;-77
2022/06/13 02:18:59;;;;;;;14.18;5.22;;;;;;;13.83;72.59;101962.00;4759859;30;20056;-77
2022/06/13 02:21:34;;;;;;;15.27;5.45;;;;;;;13.83;72.51;101961.16;4753920;30;20083;-77
2022/06/13 02:24:02;;;;;;;15.80;5.55;;;;;;;13.83;72.85;101954.03;4777999;29;20074;-77
2022/06/13 02:26:34;;;;;;;18.35;5.63;;;;;;;13.84;73.19;101944.25;4756430;30;20038;-77
2022/06/13 02:29:14;;;;;;;15.15;5.90;;;;;;;13.86;72.75;101950.44;4770004;30;20062;-77
2022/06/13 02:31:52;;;;;;;25.13;6.70;;;;;;;13.85;73.16;101944.22;4766563;30;20078;-77
2022/06/13 02:34:39;;;;;;;15.52;5.93;;;;;;;13.91;72.68;101948.56;4769986;30;20461;-77
2022/06/13 02:37:14;;;;;;;16.27;5.82;;;;;;;13.85;72.98;101946.91;4753746;30;20054;-77
2022/06/13 02:40:00;;;;;;;22.45;7.57;;;;;;;13.86;73.08;101947.78;4753857;30;20048;-77
2022/06/13 02:42:31;;;;;;;24.40;6.40;;;;;;;13.83;73.49;101947.84;4772068;29;20489;-77
2022/06/13 02:45:01;;;;;;;;;;;;;;;13.93;72.02;101950.28;4779946;30;20051;-77
2022/06/13 02:47:46;;;;;;;16.02;5.75;;;;;;;13.91;72.12;101940.56;4752633;30;20016;-77
2022/06/13 02:50:41;;;;;;;19.10;6.95;;;;;;;13.90;72.90;101946.81;4779021;30;20414;-77
2022/06/13 02:53:18;;;;;;;19.42;6.75;;;;;;;13.83;73.94;101937.19;4735578;30;20077;-78
2022/06/13 02:55:58;;;;;;;19.02;6.88;;;;;;;13.84;73.70;101933.59;4753945;30;20164;-77
2022/06/13 02:58:31;;;;;;;23.17;7.23;;;;;;;13.85;73.38;101935.38;4769829;30;20453;-77
2022/06/13 03:01:09;;;;;;;19.92;6.70;;;;;;;13.84;73.21;101929.16;4765944;30;20059;-77
2022/06/13 03:03:47;;;;;;;15.93;6.22;;;;;;;13.83;73.88;101931.84;4759524;30;20169;-77
2022/06/13 03:06:23;;;;;;;16.45;7.05;;;;;;;13.81;74.10;101941.66;4771447;30;20349;-77
2022/06/13 03:09:12;;;;;;;19.70;7.03;;;;;;;13.79;73.59;101933.69;4759207;30;20051;-77
2022/06/13 03:11:59;;;;;;;17.27;6.43;;;;;;;13.75;74.57;101934.66;4772752;30;20057;-77
2022/06/13 03:14:52;;;;;;;16.15;6.82;;;;;;;13.72;74.59;101942.66;4766796;30;20063;-77
2022/06/13 03:17:30;;;;;;;21.67;7.35;;;;;;;13.68;74.75;101955.16;4768563;29;20062;-77
2022/06/13 03:19:59;;;;;;;16.70;7.30;;;;;;;13.64;75.55;101950.78;4767852;30;20142;-77
2022/06/13 03:22:48;;;;;;;16.35;6.88;;;;;;;13.64;74.51;101944.59;4753399;30;20035;-77
2022/06/13 03:25:27;;;;;;;21.20;7.57;;;;;;;13.61;74.63;101947.31;4753015;30;20088;-77
2022/06/13 03:28:08;;;;;;;16.17;7.45;;;;;;;13.57;75.50;101946.47;4780345;30;20071;-77
2022/06/13 03:30:37;;;;;;;;;;;;;;;13.65;73.30;101943.69;4757801;30;20054;-77
2022/06/13 03:35:57;;;;;;;17.95;7.40;;;;;;;13.51;74.98;101946.59;4765096;30;20361;-77
2022/06/13 03:38:28;;;;;;;19.05;7.38;;;;;;;13.48;76.14;101950.19;4768681;30;20139;-77
2022/06/13 03:40:59;;;;;;;20.95;7.78;;;;;;;13.42;76.18;101950.25;4752703;30;20489;-77
2022/06/13 03:43:34;;;;;;;23.52;8.15;;;;;;;13.41;76.61;101961.81;4768597;30;20070;-77
2022/06/13 03:46:19;;;;;;;17.80;7.68;;;;;;;13.38;76.02;101955.66;4767085;30;20054;-77
2022/06/13 03:48:59;;;;;;;18.80;7.72;;;;;;;13.40;76.70;101967.16;4763267;30;20059;-77
2022/06/13 03:51:34;;;;;;;24.52;7.47;;;;;;;13.36;76.28;101968.13;4760316;29;20064;-77
2022/06/13 03:54:16;;;;;;;18.77;8.20;;;;;;;13.33;77.07;101966.41;4768730;30;20535;-77
2022/06/13 03:56:52;;;;;;;20.33;7.80;;;;;;;13.31;77.41;101968.19;4768656;30;20043;-77
2022/06/13 03:59:25;;;;;;;23.15;8.25;;;;;;;13.31;77.61;101971.72;4768711;30;20066;-77
2022/06/13 04:01:58;;;;;;;23.25;7.72;;;;;;;13.31;77.71;101970.84;4775899;29;20519;-77
2022/06/13 04:04:30;;;;;;;16.63;8.10;;;;;;;13.29;77.25;101972.66;4772574;30;20066;-77
2022/06/13 04:06:56;;;;;;;20.52;8.07;;;;;;;13.25;77.69;101979.78;4752382;30;20055;-77
2022/06/13 04:09:26;;;;;;;17.92;7.97;;;;;;;13.20;78.31;101973.63;4764858;30;20040;-77
2022/06/13 04:12:13;;;;;;;19.30;8.45;;;;;;;13.24;77.21;101980.66;4774480;30;20050;-77
2022/06/13 04:15:13;;;;;;;19.60;8.15;;;;;;;13.19;78.52;101984.31;4776263;30;20082;-77
2022/06/13 04:17:41;;;;;;;16.40;7.85;;;;;;;13.20;79.02;101978.94;4752444;30;20055;-77
2022/06/13 04:20:34;;;;;;;20.30;8.40;;;;;;;13.21;78.35;101978.06;4751873;30;20126;-77
2022/06/13 04:23:55;;;;;;;23.13;9.13;;;;;;;13.25;78.66;101978.88;4768366;30;20386;-77
2022/06/13 04:26:43;;;;;;;27.38;8.73;;;;;;;13.29;78.40;101984.16;4757707;30;20063;-77
2022/06/13 04:29:22;;;;;;;17.75;7.57;;;;;;;13.33;77.86;101985.88;4768530;30;20397;-77
2022/06/13 04:31:49;;;;;;;22.88;8.07;;;;;;;13.36;78.64;101984.09;4752089;30;20056;-77
2022/06/13 04:34:20;;;;;;;18.70;7.90;;;;;;;13.34;79.39;101995.63;4756784;30;20095;-77
2022/06/13 04:36:47;;;;;;;22.17;8.33;;;;;;;13.36;79.62;101992.06;4769837;30;20047;-77
2022/06/13 04:39:18;;;;;;;22.58;8.45;;;;;;;13.40;80.01;101996.44;4782613;30;20699;-77
2022/06/13 04:41:45;;;;;;;23.15;8.10;;;;;;;13.42;80.19;101992.84;4777854;30;20057;-77
2022/06/13 04:44:24;;;;;;;20.25;8.02;;;;;;;13.46;80.09;101989.25;4770748;30;20112;-77
2022/06/13 04:46:51;;;;;;;21.80;9.30;;;;;;;13.48;80.02;101989.22;4751018;30;20055;-77
2022/06/13 04:49:28;;;;;;;27.42;9.10;;;;;;;13.51;80.31;101998.03;4736861;30;20063;-77
2022/06/13 04:51:56;;;;;;;20.60;8.80;;;;;;;13.53;80.66;101998.00;4771780;30;20094;-77
2022/06/13 04:54:31;;;;;;;22.92;9.23;;;;;;;13.58;80.93;102009.47;4768179;30;20087;-77
2022/06/13 04:57:01;;;;;;;21.02;9.02;;;;;;;13.60;81.39;101996.13;4751928;30;20055;-77
2022/06/13 04:59:28;;;;;;;26.63;9.23;;;;;;;13.68;81.00;102000.44;4770145;30;20062;-77
2022/06/13 05:01:55;;;;;;;21.73;9.25;;;;;;;13.73;80.72;102009.22;4759080;30;20044;-77
2022/06/13 05:04:25;;;;;;;23.42;8.80;;;;;;;13.80;80.67;102003.78;4772152;30;20044;-77
2022/06/13 05:07:06;;;;;;;29.92;9.88;;;;;;;13.87;80.80;102000.09;4774771;30;20050;-77
2022/06/13 05:09:36;;;;;;;21.80;7.65;;;;;;;13.90;80.29;102000.94;4772151;30;20082;-77
2022/06/13 05:12:17;;;;;;;23.52;8.60;;;;;;;13.95;80.34;102003.53;4751904;30;20078;-77
2022/06/13 05:14:46;;;;;;;;;;;;;;;14.02;79.41;102013.19;4751865;30;20142;-77
2022/06/13 05:17:38;;;;;;;22.00;8.00;;;;;;;13.97;80.60;102015.00;4767853;30;19925;-77
2022/06/13 05:20:04;;;;;;;21.95;8.32;;;;;;;14.00;80.32;102014.97;4766096;30;20051;-77
2022/06/13 05:22:56;;;;;;;30.27;9.45;;;;;;;14.05;80.60;102014.91;4751880;30;20089;-77
2022/06/13 05:25:26;;;;;;;26.15;8.35;;;;;;;14.10;79.87;102021.03;4751679;30;20445;-77
2022/06/13 05:27:53;;;;;;;16.10;6.90;;;;;;;14.15;80.14;102016.50;4778890;30;20051;-77
2022/06/13 05:30:20;;;;;;;22.17;8.23;;;;;;;14.21;79.97;102021.69;4781519;30;20046;-77
2022/06/13 05:32:45;;;;;;;17.55;7.38;;;;;;;14.30;79.51;102032.19;4734793;30;20119;-77
2022/06/13 05:35:19;;;;;;;17.25;6.82;;;;;;;14.36;78.97;102032.06;4751750;30;20448;-77
2022/06/13 05:37:45;;;;;;;17.30;6.95;;;;;;;14.47;79.02;102028.34;4763886;30;20047;-77
2022/06/13 05:40:17;;;;;;;26.45;7.00;;;;;;;14.54;78.04;102040.66;4778235;30;20040;-78
2022/06/13 05:42:44;;;;;;;19.60;7.43;;;;;;;14.59;77.00;102036.16;4770818;30;20138;-77
2022/06/13 05:45:14;;;;;;;24.50;7.15;;;;;;;14.65;76.72;102032.47;4769990;30;20110;-77
2022/06/13 05:47:42;;;;;;;19.87;6.83;;;;;;;14.71;76.64;102038.56;4769218;30;20051;-78
2022/06/13 05:50:19;;;;;;;23.45;7.72;;;;;;;14.74;77.15;102042.97;4779385;30;20603;-77
2022/06/13 05:52:45;;;;;;;17.40;6.38;;;;;;;14.81;76.51;102047.22;4773167;30;20090;-78
2022/06/13 05:55:11;;;;;;;18.40;6.78;;;;;;;14.85;76.34;102054.28;4770783;30;20063;-78
2022/06/13 05:57:38;;;;;;;22.13;6.32;;;;;;;14.91;76.63;102054.16;4754755;30;20464;-78
2022/06/13 06:00:06;;;;;;;22.95;7.10;;;;;;;14.98;76.06;102052.22;4739953;30;20063;-77
2022/06/13 06:02:37;;;;;;;18.88;6.20;;;;;;;15.05;76.41;102060.06;4754061;30;20059;-77
2022/06/13 06:05:03;;;;;;;23.20;6.25;;;;;;;15.16;76.07;102067.88;4754355;30;20522;-77
2022/06/13 06:07:30;;;;;;;22.63;6.47;;;;;;;15.24;75.20;102065.03;4754713;30;20517;-77
2022/06/13 06:09:56;;;;;;;24.52;5.47;;;;;;;15.34;75.14;102073.72;4774734;30;20044;-77
2022/06/13 06:12:21;;;;;;;16.98;5.90;;;;;;;15.34;74.12;102085.25;4778736;30;20115;-77
2022/06/13 06:14:47;;;;;;;21.60;5.80;;;;;;;15.38;73.59;102083.38;4742776;30;20510;-77
2022/06/13 06:17:12;;;;;;;21.52;5.80;;;;;;;15.46;73.85;102085.00;4762220;30;20485;-77
2022/06/13 06:19:38;;;;;;;16.73;4.50;;;;;;;15.50;71.24;102085.78;4758895;30;20516;-78
2022/06/13 06:22:03;;;;;;;16.30;4.90;;;;;;;15.47;68.25;102084.06;4724812;30;20121;-78
2022/06/13 06:24:29;;;;;;;15.57;3.30;;;;;;;15.49;66.78;102090.25;4763796;30;20370;-78
2022/06/13 06:26:55;;;;;;;11.73;3.55;;;;;;;15.53;66.98;102093.75;4753795;30;20074;-77
2022/06/13 06:29:20;;;;;;;8.63;3.17;;;;;;;15.57;66.69;102095.41;4748651;29;20087;-77
2022/06/13 06:31:46;;;;;;;12.43;3.47;;;;;;;15.60;65.22;102106.06;4759052;30;20120;-78
2022/06/13 06:34:11;;;;;;;14.20;2.80;;;;;;;15.61;63.26;102098.91;4771078;30;20055;-78
2022/06/13 06:36:37;;;;;;;10.80;2.97;;;;;;;15.61;62.33;102099.78;4769794;30;20519;-78
2022/06/13 06:39:02;;;;;;;11.48;3.22;;;;;;;15.56;62.64;102099.00;4753685;30;20063;-78
2022/06/13 06:41:28;;;;;;;14.40;3.22;;;;;;;15.66;62.99;102113.91;4769956;30;20130;-78
2022/06/13 06:43:55;;;;;;;12.68;3.05;;;;;;;15.82;63.25;102101.09;4753226;30;20110;-77
2022/06/13 06:46:21;;;;;;;10.95;3.13;;;;;;;16.03;62.76;102109.53;4736203;30;20139;-78
2022/06/13 06:48:46;;;;;;;11.30;3.60;;;;;;;16.18;61.58;102109.16;4748599;30;20123;-77
2022/06/13 06:51:14;;;;;;;11.48;3.38;;;;;;;16.30;60.97;102107.97;4751208;30;20398;-78
2022/06/13 07:01:53;;;;;;;12.77;2.63;;;;;;;16.41;59.42;102111.22;4761159;30;20055;-77
2022/06/13 07:04:18;;;;;;;9.63;2.75;;;;;;;16.54;58.93;102111.78;4774941;30;20504;-77
2022/06/13 07:06:44;;;;;;;11.25;2.70;;;;;;;16.64;58.00;102113.31;4781589;30;20060;-78
2022/06/13 07:09:09;;;;;;;12.40;2.40;;;;;;;16.69;57.22;102105.13;4780780;30;20098;-77
2022/06/13 07:11:54;;;;;;;8.10;2.40;;;;;;;16.82;57.69;102116.44;4758826;30;20047;-78
2022/06/13 07:14:20;;;;;;;11.73;2.50;;;;;;;16.91;56.22;102109.03;4768324;30;20048;-78
2022/06/13 07:16:46;;;;;;;8.98;2.10;;;;;;;16.99;56.12;102108.81;4769782;30;20459;-78
2022/06/13 07:19:12;;;;;;;14.25;2.60;;;;;;;17.10;56.77;102109.38;4743357;30;20064;-78
2022/06/13 07:21:37;;;;;;;9.23;2.45;;;;;;;17.26;56.12;102115.16;4780619;30;20058;-78
2022/06/13 07:24:03;;;;;;;9.57;2.60;;;;;;;17.36;55.99;102111.28;4753140;30;20054;-78
2022/06/13 07:26:31;;;;;;;10.35;2.92;;;;;;;17.44;56.38;102113.72;4754015;30;20047;-78
2022/06/13 07:28:56;;;;;;;12.70;2.78;;;;;;;17.42;55.66;102111.09;4780578;29;20052;-79
2022/06/13 07:31:28;;;;;;;12.02;2.60;;;;;;;17.60;56.42;102119.47;4753182;30;20063;-78
2022/06/13 07:33:54;;;;;;;9.85;2.70;;;;;;;17.82;54.78;102115.22;4765243;30;20047;-78
2022/06/13 07:36:19;;;;;;;12.48;2.80;;;;;;;17.84;54.13;102120.56;4753074;30;20040;-79
2022/06/13 07:38:47;;;;;;;12.52;2.58;;;;;;;17.50;53.71;102126.91;4768962;30;20063;-78
2022/06/13 07:41:20;;;;;;;11.15;2.90;;;;;;;17.22;54.01;102121.53;4758599;30;20039;-79
2022/06/13 07:43:46;;;;;;;14.52;2.72;;;;;;;17.15;54.90;102119.94;4774645;29;20139;-78
2022/06/13 07:46:13;;;;;;;10.10;2.50;;;;;;;17.29;55.89;102122.22;4731080;30;20046;-78
2022/06/13 07:48:39;;;;;;;14.23;3.20;;;;;;;17.41;55.34;102127.22;4768441;30;20102;-79
2022/06/13 07:51:05;;;;;;;10.70;2.15;;;;;;;17.61;55.77;102124.81;4765129;30;20138;-78
2022/06/13 07:53:32;;;;;;;10.52;3.00;;;;;;;17.84;54.99;102134.81;4768889;30;20485;-78
2022/06/13 07:55:58;;;;;;;9.90;2.75;;;;;;;18.00;54.29;102135.22;4768309;30;20120;-79
2022/06/13 07:58:34;;;;;;;11.80;2.88;;;;;;;17.97;54.94;102146.03;4744880;30;20361;-79
2022/06/13 08:01:01;;;;;;;14.68;2.70;;;;;;;18.02;55.09;102145.88;4772694;30;20048;-78
2022/06/13 08:03:30;;;;;;;8.98;2.33;;;;;;;18.14;54.46;102148.16;4768594;30;20058;-79
2022/06/13 08:05:56;;;;;;;9.55;3.35;;;;;;;18.39;54.97;102152.72;4752646;30;20119;-78
2022/06/13 08:08:22;;;;;;;9.85;2.70;;;;;;;18.52;51.75;102147.81;4737812;30;20052;-79
2022/06/13 08:10:50;;;;;;;10.80;2.50;;;;;;;18.60;52.71;102160.03;4748302;30;20051;-79
2022/06/13 08:13:19;;;;;;;14.70;2.40;;;;;;;18.40;51.91;102152.69;4770298;30;20048;-79
2022/06/13 08:15:45;;;;;;;9.57;2.60;;;;;;;18.35;52.95;102161.81;4760138;30;20127;-79
2022/06/13 08:18:13;;;;;;;5.63;2.30;;;;;;;18.20;53.05;102166.75;4764623;30;20601;-78
2022/06/13 08:20:39;;;;;;;9.15;2.65;;;;;;;17.94;53.80;102172.06;4768400;30;20087;-79
2022/06/13 08:23:08;;;;;;;8.02;2.00;;;;;;;17.79;53.12;102171.56;4768395;30;20047;-79
2022/06/13 08:25:35;;;;;;;9.15;2.33;;;;;;;17.49;52.88;102178.75;4737785;30;20200;-79
2022/06/13 08:28:01;;;;;;;7.40;2.08;;;;;;;17.57;52.65;102175.84;4780502;30;20156;-78
2022/06/13 08:30:38;;;;;;;5.15;1.52;;;;;;;17.73;52.17;102176.22;4768464;30;20134;-79
2022/06/13 08:33:04;;;;;;;10.55;2.40;;;;;;;17.99;52.67;102168.31;4752223;30;20075;-78
2022/06/13 08:35:30;;;;;;;6.95;2.35;;;;;;;18.26;52.49;102171.88;4780910;29;20050;-79
2022/06/13 08:37:56;;;;;;;7.97;2.28;;;;;;;18.49;51.63;102183.66;4752195;30;20455;-79
2022/06/13 08:40:25;;;;;;;10.55;1.70;;;;;;;18.41;49.40;102183.91;4768171;30;20063;-79
2022/06/13 08:43:01;;;;;;;4.85;1.80;;;;;;;18.46;49.77;102183.78;4767780;30;20093;-78
2022/06/13 08:45:26;;;;;;;7.47;1.92;;;;;;;18.61;47.91;102174.31;4750357;30;20162;-79
2022/06/13 08:48:08;;;;;;;5.38;1.50;;;;;;;18.82;48.66;102179.00;4751649;30;20127;-78
2022/06/13 08:51:08;;;;;;;10.23;1.88;;;;;;;18.94;49.69;102188.44;4780049;30;20062;-79
2022/06/13 08:53:43;;;;;;;4.93;1.52;;;;;;;19.05;48.22;102179.97;4743490;30;20393;-78
2022/06/13 08:56:14;;;;;;;6.53;1.63;;;;;;;19.15;47.66;102186.75;4751812;30;20052;-80
2022/06/13 08:58:46;;;;;;;9.98;2.42;;;;;;;19.22;48.28;102187.41;4752257;30;20048;-79
2022/06/13 09:01:17;;;;;;;7.00;1.95;;;;;;;18.93;49.07;102191.16;4754425;30;20182;-78
2022/06/13 09:03:51;;;;;;;6.60;1.90;;;;;;;18.58;48.87;102195.91;4777031;30;20089;-79
2022/06/13 09:06:28;;;;;;;7.97;1.60;;;;;;;18.36;50.19;102201.97;4766718;29;20043;-78
2022/06/13 09:08:58;;;;;;;6.05;1.88;;;;;;;18.60;50.67;102207.47;4773228;30;20527;-78
2022/06/13 09:11:37;;;;;;;8.65;2.28;;;;;;;19.03;50.34;102208.69;4774359;30;20060;-79
2022/06/13 09:14:18;;;;;;;8.82;2.00;;;;;;;19.51;50.27;102205.13;4765916;30;20040;-78
2022/06/13 09:16:51;;;;;;;12.20;2.03;;;;;;;19.62;48.25;102210.09;4782817;30;20060;-79
2022/06/13 09:19:34;;;;;;;13.50;2.17;;;;;;;19.49;48.83;102215.06;4765885;30;20399;-79
2022/06/13 09:22:35;;;;;;;8.75;2.28;;;;;;;19.41;49.57;102220.72;4783853;29;20052;-78
2022/06/13 09:25:16;;;;;;;6.57;1.90;;;;;;;19.23;49.41;102218.69;4748512;30;20141;-77
2022/06/13 09:27:54;;;;;;;9.02;2.28;;;;;;;19.24;50.17;102215.97;4760190;30;20049;-78
2022/06/13 09:31:03;;;;;;;8.15;2.03;;;;;;;19.63;47.49;102214.53;4769955;30;20101;-78
2022/06/13 09:33:34;;;;;;;10.25;1.92;;;;;;;19.80;47.74;102216.63;4754955;30;20051;-78
2022/06/13 09:36:08;;;;;;;6.80;1.75;;;;;;;20.01;46.54;102221.16;4788500;29;20058;-79
2022/06/13 09:38:53;;;;;;;12.57;1.77;;;;;;;19.61;45.26;102222.66;4788931;29;20062;-79
2022/06/13 09:41:39;;;;;;;5.45;1.52;;;;;;;19.31;46.41;102222.88;4740521;30;20130;-78
2022/06/13 09:44:23;;;;;;;5.28;1.30;;;;;;;19.39;46.78;102224.41;4747769;30;20455;-78
2022/06/13 09:47:38;;;;;;;3.60;1.40;;;;;;;19.53;45.87;102227.44;4768882;30;20074;-78
2022/06/13 09:50:15;;;;;;;5.43;1.48;;;;;;;19.59;43.53;102229.91;4754230;30;20060;-78
2022/06/13 09:52:53;;;;;;;4.93;1.30;;;;;;;19.55;42.45;102228.25;4754380;30;20105;-78
2022/06/13 09:55:48;;;;;;;5.15;1.25;;;;;;;19.74;44.94;102225.78;4754651;30;20419;-78
2022/06/13 09:58:28;;;;;;;4.10;1.25;;;;;;;20.11;43.91;102224.34;4754457;30;20036;-79
2022/06/13 10:00:58;;;;;;;;;;;;;;;20.26;44.68;102231.81;4767662;30;20059;-78
2022/06/13 10:03:42;;;;;;;5.15;1.40;;;;;;;20.25;43.45;102239.94;4765898;30;19918;-80
2022/06/13 10:06:49;;;;;;;11.00;1.70;;;;;;;20.49;42.34;102235.38;4767752;30;20178;-78
2022/06/13 10:09:49;;;;;;;4.47;1.45;;;;;;;20.30;43.07;102236.13;4732739;30;20453;-79
2022/06/13 10:12:41;;;;;;;5.30;1.33;;;;;;;20.04;43.84;102247.06;4714451;30;20139;-79
2022/06/13 10:15:28;;;;;;;6.25;2.00;;;;;;;19.80;44.25;102252.44;4760253;30;20123;-78
2022/06/13 10:18:12;;;;;;;10.30;1.90;;;;;;;19.84;45.19;102245.13;4769895;30;20048;-78
2022/06/13 10:21:02;;;;;;;7.80;1.83;;;;;;;19.63;45.30;102247.66;4770190;30;20056;-78
2022/06/13 10:23:27;;;;;;;6.18;1.45;;;;;;;19.60;45.82;102250.47;4757837;30;20047;-78
2022/06/13 10:26:09;;;;;;;8.95;1.60;;;;;;;19.46;46.23;102255.47;4779070;29;20036;-79
2022/06/13 10:29:00;;;;;;;7.40;1.90;;;;;;;19.39;46.81;102249.47;4766067;30;20048;-78
2022/06/13 10:31:42;;;;;;;6.43;1.60;;;;;;;19.62;47.03;102248.59;4770035;30;20054;-79
2022/06/13 10:34:32;;;;;;;8.07;1.60;;;;;;;19.79;46.69;102249.81;4766268;30;20429;-78
2022/06/13 10:37:10;;;;;;;7.63;2.05;;;;;;;19.86;43.71;102246.81;4753842;30;20100;-78
2022/06/13 10:39:36;;;;;;;6.82;2.13;;;;;;;20.01;44.11;102247.19;4739550;30;20044;-78
2022/06/13 10:42:09;;;;;;;6.80;1.63;;;;;;;20.10;43.95;102242.31;4780366;30;20511;-78
2022/06/13 10:44:36;;;;;;;8.05;1.60;;;;;;;20.45;44.25;102247.19;4746840;30;20078;-79
2022/06/13 10:47:16;;;;;;;5.63;1.58;;;;;;;20.44;41.99;102245.44;4753973;30;20132;-78
2022/06/13 10:49:48;;;;;;;7.25;1.40;;;;;;;20.34;41.48;102244.94;4771684;30;20145;-80
2022/06/13 10:52:17;;;;;;;5.00;1.50;;;;;;;20.26;42.65;102249.75;4753681;30;20173;-79
2022/06/13 10:54:50;;;;;;;5.55;1.55;;;;;;;20.29;42.84;102249.63;4753405;30;20043;-78
2022/06/13 10:57:25;;;;;;;6.32;1.42;;;;;;;20.24;43.51;102244.44;4780739;30;20469;-78
2022/06/13 11:00:30;;;;;;;6.32;1.45;;;;;;;19.94;43.89;102247.41;4774836;30;20036;-78
2022/06/13 11:03:17;;;;;;;8.77;1.83;;;;;;;20.09;43.57;102245.91;4702120;30;20178;-79
2022/06/13 11:06:01;;;;;;;6.53;1.50;;;;;;;20.10;43.17;102250.38;4718054;30;20060;-78
2022/06/13 11:08:28;;;;;;;4.68;1.67;;;;;;;19.91;43.30;102252.91;4724288;30;20123;-78
2022/06/13 11:10:59;;;;;;;6.72;1.67;;;;;;;19.61;43.29;102257.59;4763009;30;20047;-79
2022/06/13 11:13:34;;;;;;;6.78;1.70;;;;;;;19.83;42.76;102265.78;4752250;30;20113;-78
2022/06/13 11:24:45;;;;;;;8.57;1.50;;;;;;;21.68;40.07;102245.47;4769351;30;20195;-79
2022/06/13 11:27:39;;;;;;;5.47;1.45;;;;;;;21.48;40.56;102259.88;4752847;30;20124;-78
2022/06/13 11:30:35;;;;;;;9.30;2.08;;;;;;;20.98;40.49;102262.94;4768173;30;20048;-79
2022/06/13 11:33:17;;;;;;;8.77;1.55;;;;;;;20.78;41.33;102264.66;4756234;30;20047;-78
2022/06/13 11:35:49;;;;;;;7.45;1.50;;;;;;;20.63;42.61;102262.63;4768739;30;20412;-77
2022/06/13 11:38:20;;;;;;;6.57;1.63;;;;;;;20.78;42.01;102267.34;4752842;30;20568;-78
2022/06/13 11:40:56;;;;;;;8.50;1.80;;;;;;;20.63;42.39;102268.00;4767636;30;20081;-78
2022/06/13 11:43:43;;;;;;;5.78;1.80;;;;;;;20.33;44.19;102265.59;4777478;29;20472;-78
2022/06/13 11:46:30;;;;;;;9.52;1.88;;;;;;;20.88;44.88;102266.97;4751596;30;20055;-79
2022/06/13 11:49:03;;;;;;;4.95;1.60;;;;;;;21.54;42.58;102259.59;4752035;30;20493;-80
2022/06/13 11:51:33;;;;;;;10.90;2.17;;;;;;;21.74;41.75;102264.06;4768744;30;20059;-79
2022/06/13 11:53:59;;;;;;;8.20;2.20;;;;;;;21.88;41.07;102264.31;4752758;30;20355;-80
2022/06/13 11:56:31;;;;;;;13.50;2.00;;;;;;;22.07;41.70;102260.72;4781025;30;20380;-78
2022/06/13 11:59:01;;;;;;;6.07;1.65;;;;;;;21.67;39.70;102266.16;4752443;30;20050;-79
2022/06/13 12:01:35;;;;;;;6.50;2.20;;;;;;;21.26;40.56;102266.19;4752378;30;20040;-78
2022/06/13 12:04:12;;;;;;;11.25;2.35;;;;;;;21.20;41.08;102266.44;4756233;30;20139;-79
2022/06/13 12:06:50;;;;;;;6.30;1.40;;;;;;;21.50;41.60;102259.81;4757382;30;20047;-79
2022/06/13 12:09:23;;;;;;;10.15;2.00;;;;;;;21.35;41.73;102262.22;4770409;30;20051;-78
2022/06/13 12:11:58;;;;;;;4.03;1.05;;;;;;;21.30;38.40;102258.84;4756195;30;20060;-79
2022/06/13 12:14:25;;;;;;;5.00;1.42;;;;;;;21.20;38.60;102261.06;4760426;30;20044;-77
2022/06/13 12:17:01;;;;;;;6.80;1.63;;;;;;;20.89;38.97;102261.50;4757303;30;20054;-78